X  Close Metar Aviation Weather Data     YPAD Adelaide International Airport
Temperature
23°C Temperature
0°C Dewpoint
22% Humidity



Wind
34 KM/H
21 MPH
9 M/S
18 KTS



40°
NE
Current Conditions

Area Showers Area Showers
Pressure 1006.92 (hPa) - 29.73 (inHg)
Visibility 6.2 (mile) - 10 (km)
Airport
Airport-code YPAD

Location: Adelaide International Airport
Distance: 20 (km)

Metar:
YPAD 161500Z 04018KT 9999 VCSH NSC 23/00 Q1007

Time: 17-09-2021 12:30 am ACST